KICT/ICT METAR and TAF weather

Enter ICAO airport designator
Station Type Date Time Source
KICT METAR 2021/10/24 21:53 UTC NOAA

KICT 242153Z 32012KT 10SM FEW035 21/11 A2976 RMK AO2 SLP067 T02060111


Station Type Date Time Source
KICT Decoded METAR 2021/10/24 21:53 UTC NOAA

WICHITA MID-CONTINENT AIRPORT , KS, United States (KICT) 37-39N 97-26W 408M
Oct 24, 2021 - 05:53 PM EDT / 2021.10.24 2153 UTC
Wind: from the NW (320 degrees) at 14 MPH (12 KT):0
Visibility: 10 mile(s):0
Sky conditions: mostly clear
Temperature: 69.1 F (20.6 C)
Dew Point: 52.0 F (11.1 C)
Relative Humidity: 54%
Pressure (altimeter): 29.76 in. Hg (1007 hPa)
ob: KICT 242153Z 32012KT 10SM FEW035 21/11 A2976 RMK AO2 SLP067 T02060111
cycle: 22

Station Type Date Time Source
KICT TAF 2021/10/24 20:12 UTC NOAA

TAF
AMD KICT 242010Z 2420/2518 32010G20KT P6SM FEW025
FM250100 VRB06KT P6SM FEW250
FM251300 03010KT P6SM FEW250

Example: see airport list